Terminal Aerodrome Forecast
Issued by NWS Cleveland, OH

Home | Current Version | Previous Version | Text Only | Print | Product List | Glossary On
Versions: 1 2 3 4 5 6 7 8 9 10 11 12 13 14 15 16 17 18 19 20 21
000
FTUS41 KCLE 281500 AAA
TAFYNG
TAF AMD
KYNG 281504Z 2815/2912 31012G22KT P6SM VCSH BKN008 OVC025
      TEMPO 2815/2817 4SM -SHRA SCT008 OVC025
     FM281700 32014G22KT P6SM VCSH BKN022 OVC035
     FM290100 31006KT P6SM BKN030
     FM290800 27005KT P6SM SCT035=

USA.gov is the U.S. government's official web portal to all federal, state and local government web resources and services.